Time;durP1;ratioP1;P1;durP2;ratioP2;P2;SDS_P1;SDS_P2;PMS_P1;PMS_P2;Temp;Humidity;BMP_temperature;BMP_pressure;BME280_temperature;BME280_humidity;BME280_pressure;Samples;Min_cycle;Max_cycle;Signal;HPM_P1;HPM_P2
2023/01/31 00:01:51;;;;;;;;;;;;;;;;;;4997873;28;7392;-68
2023/01/31 00:04:17;;;;;;;;;;;;;;;;;;4997959;28;7114;-68
2023/01/31 00:06:49;;;;;;;;;;;;;;;;;;4997981;28;6932;-68
2023/01/31 00:09:15;;;;;;;;;;;;;;;;;;4998768;28;7082;-68
2023/01/31 00:11:44;;;;;;;;;;;;;;;;;;4997796;28;7336;-68
2023/01/31 00:14:16;;;;;;;;;;;;;;;;;;4997574;28;7207;-68
2023/01/31 00:16:41;;;;;;;;;;;;;;;;;;4998283;28;7146;-68
2023/01/31 00:19:07;;;;;;;;;;;;;;;;;;4997361;28;6940;-68
2023/01/31 00:21:42;;;;;;;;;;;;;;;;;;4997601;28;7248;-68
2023/01/31 00:24:08;;;;;;;;;;;;;;;;;;4997561;28;7083;-68
2023/01/31 00:26:34;;;;;;;;;;;;;;;;;;4997453;28;6956;-68
2023/01/31 00:29:01;;;;;;;;;;;;;;;;;;4997493;28;7201;-68
2023/01/31 00:34:30;;;;;;;;;;;;;;;;;;4997257;28;6690;-68
2023/01/31 00:36:55;;;;;;;;;;;;;;;;;;4979840;28;8412;-68
2023/01/31 00:42:48;;;;;;;;;;;;;;;;;;4996962;28;6681;-68
2023/01/31 00:45:23;;;;;;;;;;;;;;;;;;4997336;28;7156;-68
2023/01/31 00:47:48;;;;;;;;;;;;;;;;;;4997209;28;7235;-68
2023/01/31 00:53:39;;;;;;;;;;;;;;;;;;4996783;28;7043;-68
2023/01/31 00:56:07;;;;;;;;;;;;;;;;;;4995695;28;8421;-68
2023/01/31 00:58:35;;;;;;;;;;;;;;;;;;4996648;28;6985;-68
2023/01/31 01:01:07;;;;;;;;;;;;;;;;;;4996960;28;7277;-68
2023/01/31 01:03:33;;;;;;;;;;;;;;;;;;4996832;28;7154;-68
2023/01/31 01:05:58;;;;;;;;;;;;;;;;;;4996381;28;7842;-68
2023/01/31 01:11:25;;;;;;;;;;;;;;;;;;4996597;28;7025;-68
2023/01/31 01:16:57;;;;;;;;;;;;;;;;;;4996303;28;6930;-68
2023/01/31 01:19:22;;;;;;;;;;;;;;;;;;4996427;28;6940;-68
2023/01/31 01:21:48;;;;;;;;;;;;;;;;;;4996472;28;7106;-68
2023/01/31 01:27:17;;;;;;;;;;;;;;;;;;4996185;28;7411;-68
2023/01/31 01:29:42;;;;;;;;;;;;;;;;;;4996980;28;7132;-68
2023/01/31 01:32:08;;;;;;;;;;;;;;;;;;4996316;28;7109;-68
2023/01/31 01:37:36;;;;;;;;;;;;;;;;;;4995949;28;6681;-68
2023/01/31 01:40:02;;;;;;;;;;;;;;;;;;4996133;28;7241;-68
2023/01/31 01:42:32;;;;;;;;;;;;;;;;;;4996210;28;6929;-68
2023/01/31 01:54:12;;;;;;;;;;;;;;;;;;4993958;28;6741;-68
2023/01/31 01:56:41;;;;;;;;;;;;;;;;;;4995940;28;7083;-68
2023/01/31 01:59:15;;;;;;;;;;;;;;;;;;4995753;28;7380;-68
2023/01/31 02:01:42;;;;;;;;;;;;;;;;;;4995933;28;6954;-68
2023/01/31 02:07:43;;;;;;;;;;;;;;;;;;4995776;28;6913;-68
2023/01/31 02:10:32;;;;;;;;;;;;;;;;;;4995784;28;7035;-68
2023/01/31 02:12:58;;;;;;;;;;;;;;;;;;5010174;28;7264;-68
2023/01/31 02:15:35;;;;;;;;;;;;;;;;;;5015069;28;7036;-68
2023/01/31 02:18:01;;;;;;;;;;;;;;;;;;5015035;28;7166;-68
2023/01/31 02:20:40;;;;;;;;;;;;;;;;;;5015549;28;7141;-68
2023/01/31 02:23:24;;;;;;;;;;;;;;;;;;5014862;28;6967;-68
2023/01/31 02:26:23;;;;;;;;;;;;;;;;;;5015020;28;6973;-68
2023/01/31 02:28:49;;;;;;;;;;;;;;;;;;5015407;28;7387;-68
2023/01/31 02:31:57;;;;;;;;;;;;;;;;;;5014940;28;7154;-68
2023/01/31 02:34:22;;;;;;;;;;;;;;;;;;5006929;28;6952;-68
2023/01/31 02:43:09;;;;;;;;;;;;;;;;;;5014960;28;6922;-68
2023/01/31 02:49:07;;;;;;;;;;;;;;;;;;5015055;28;6917;-68
2023/01/31 02:51:40;;;;;;;;;;;;;;;;;;5014761;28;6956;-68
2023/01/31 02:57:21;;;;;;;;;;;;;;;;;;5015137;28;6715;-68
2023/01/31 02:59:50;;;;;;;;;;;;;;;;;;5014695;28;7210;-68
2023/01/31 03:02:16;;;;;;;;;;;;;;;;;;5014662;28;7363;-68
2023/01/31 03:04:42;;;;;;;;;;;;;;;;;;5019556;28;7156;-68
2023/01/31 03:13:31;;;;;;;;;;;;;;;;;;5018407;28;6814;-68
2023/01/31 03:19:12;;;;;;;;;;;;;;;;;;5018764;28;6793;-68
2023/01/31 03:21:46;;;;;;;;;;;;;;;;;;5014885;28;7197;-68
2023/01/31 03:24:29;;;;;;;;;;;;;;;;;;5018732;28;8688;-68
2023/01/31 03:26:56;;;;;;;;;;;;;;;;;;5018407;28;6963;-68
2023/01/31 03:29:24;;;;;;;;;;;;;;;;;;5018331;28;6957;-68
2023/01/31 03:31:57;;;;;;;;;;;;;;;;;;5018229;28;7422;-68
2023/01/31 03:34:43;;;;;;;;;;;;;;;;;;5018157;28;6961;-68
2023/01/31 03:37:15;;;;;;;;;;;;;;;;;;5017918;28;7349;-68
2023/01/31 03:39:41;;;;;;;;;;;;;;;;;;5041028;23;7138;-68
2023/01/31 03:42:20;;;;;;;;;;;;;;;;;;4998439;28;7193;-68
2023/01/31 03:45:08;;;;;;;;;;;;;;;;;;4998201;28;7216;-67
2023/01/31 03:47:33;;;;;;;;;;;;;;;;;;4998335;28;7440;-68
2023/01/31 03:56:02;;;;;;;;;;;;;;;;;;4998451;28;7024;-67
2023/01/31 04:01:34;;;;;;;;;;;;;;;;;;4998377;28;6924;-68
2023/01/31 04:04:13;;;;;;;;;;;;;;;;;;4997930;28;7155;-67
2023/01/31 04:06:45;;;;;;;;;;;;;;;;;;4997915;28;7028;-68
2023/01/31 04:09:11;;;;;;;;;;;;;;;;;;4997908;28;6952;-67
2023/01/31 04:11:39;;;;;;;;;;;;;;;;;;4997808;28;7146;-68
2023/01/31 04:14:04;;;;;;;;;;;;;;;;;;4996775;28;7050;-68
2023/01/31 04:16:30;;;;;;;;;;;;;;;;;;4997553;28;7112;-68
2023/01/31 04:18:55;;;;;;;;;;;;;;;;;;4997544;28;7117;-67
2023/01/31 04:21:21;;;;;;;;;;;;;;;;;;4997659;28;7382;-68
2023/01/31 04:23:47;;;;;;;;;;;;;;;;;;4997649;28;7203;-68
2023/01/31 04:26:13;;;;;;;;;;;;;;;;;;4997597;28;7170;-68
2023/01/31 04:28:38;;;;;;;;;;;;;;;;;;4997923;28;7386;-67
2023/01/31 04:31:04;;;;;;;;;;;;;;;;;;4997429;28;7121;-68
2023/01/31 04:36:32;;;;;;;;;;;;;;;;;;4997104;28;6690;-69
2023/01/31 04:38:59;;;;;;;;;;;;;;;;;;4997214;28;7025;-68
2023/01/31 04:41:42;;;;;;;;;;;;;;;;;;4997346;28;7255;-68
2023/01/31 04:44:08;;;;;;;;;;;;;;;;;;4979692;28;7086;-71
2023/01/31 04:46:34;;;;;;;;;;;;;;;;;;4997485;28;7275;-72
2023/01/31 04:58:19;;;;;;;;;;;;;;;;;;4996842;28;6698;-72
2023/01/31 05:00:45;;;;;;;;;;;;;;;;;;4996866;28;7251;-72
2023/01/31 05:03:16;;;;;;;;;;;;;;;;;;4996891;28;7158;-72
2023/01/31 05:05:42;;;;;;;;;;;;;;;;;;4996816;28;7426;-72
2023/01/31 05:08:40;;;;;;;;;;;;;;;;;;4996720;28;7176;-72
2023/01/31 05:11:07;;;;;;;;;;;;;;;;;;4997003;28;7437;-72
2023/01/31 05:13:36;;;;;;;;;;;;;;;;;;4996697;28;7219;-72
2023/01/31 05:16:07;;;;;;;;;;;;;;;;;;4996619;28;7390;-72
2023/01/31 05:18:34;;;;;;;;;;;;;;;;;;4996369;28;6979;-72
2023/01/31 05:21:00;;;;;;;;;;;;;;;;;;4996472;28;7136;-72
2023/01/31 05:23:44;;;;;;;;;;;;;;;;;;4997251;28;7142;-72
2023/01/31 05:29:13;;;;;;;;;;;;;;;;;;4996296;28;6925;-72
2023/01/31 05:31:38;;;;;;;;;;;;;;;;;;4996037;28;8191;-72
2023/01/31 05:40:12;;;;;;;;;;;;;;;;;;4980830;28;7052;-72
2023/01/31 05:42:43;;;;;;;;;;;;;;;;;;4996085;28;7148;-72
2023/01/31 05:45:10;;;;;;;;;;;;;;;;;;4996057;28;7404;-69
2023/01/31 05:50:38;;;;;;;;;;;;;;;;;;4996143;28;7060;-69
2023/01/31 05:53:03;;;;;;;;;;;;;;;;;;4995663;28;7144;-69
2023/01/31 05:55:29;;;;;;;;;;;;;;;;;;4996407;28;7375;-68
2023/01/31 06:00:57;;;;;;;;;;;;;;;;;;4995565;28;6683;-72
2023/01/31 06:03:23;;;;;;;;;;;;;;;;;;4995478;28;7180;-68
2023/01/31 06:05:49;;;;;;;;;;;;;;;;;;4995669;28;7263;-68
2023/01/31 06:08:14;;;;;;;;;;;;;;;;;;4995699;28;6951;-69
2023/01/31 06:10:52;;;;;;;;;;;;;;;;;;4995452;28;7121;-69
2023/01/31 06:13:18;;;;;;;;;;;;;;;;;;4995558;28;6977;-68
2023/01/31 06:15:44;;;;;;;;;;;;;;;;;;4995528;28;7464;-68
2023/01/31 06:18:12;;;;;;;;;;;;;;;;;;4995175;28;7237;-68
2023/01/31 06:20:37;;;;;;;;;;;;;;;;;;4995384;28;7460;-68
2023/01/31 06:23:06;;;;;;;;;;;;;;;;;;4995593;28;7068;-68
2023/01/31 06:25:31;;;;;;;;;;;;;;;;;;4993590;28;7080;-68
2023/01/31 06:27:57;;;;;;;;;;;;;;;;;;4995470;28;7229;-68
2023/01/31 06:30:32;;;;;;;;;;;;;;;;;;4992782;28;7033;-68
2023/01/31 06:33:00;;;;;;;;;;;;;;;;;;4995134;28;7223;-68
2023/01/31 06:38:30;;;;;;;;;;;;;;;;;;4994786;28;6937;-68
2023/01/31 06:44:03;;;;;;;;;;;;;;;;;;4994813;28;6986;-68
2023/01/31 06:46:28;;;;;;;;;;;;;;;;;;4990582;28;8697;-68
2023/01/31 06:49:09;;;;;;;;;;;;;;;;;;4994369;28;6924;-68
2023/01/31 06:51:35;;;;;;;;;;;;;;;;;;4995179;28;7039;-68
2023/01/31 06:54:13;;;;;;;;;;;;;;;;;;4995119;28;7310;-68
2023/01/31 06:56:39;;;;;;;;;;;;;;;;;;4995184;28;7145;-68
2023/01/31 06:59:32;;;;;;;;;;;;;;;;;;4994645;28;7088;-71
2023/01/31 07:01:58;;;;;;;;;;;;;;;;;;4995399;28;7162;-72
2023/01/31 07:04:42;;;;;;;;;;;;;;;;;;4995117;28;6935;-72
2023/01/31 07:07:08;;;;;;;;;;;;;;;;;;4995497;28;7207;-71
2023/01/31 07:09:34;;;;;;;;;;;;;;;;;;4995043;28;7084;-72
2023/01/31 07:14:35;;;;;;;;;;;;;;;;;;5074977;23;6929;-68
2023/01/31 07:23:06;;;;;;;;;;;;;;;;;;5014342;28;6674;-68
2023/01/31 07:25:33;;;;;;;;;;;;;;;;;;5014334;28;6935;-68
2023/01/31 07:31:10;;;;;;;;;;;;;;;;;;5014369;28;6698;-68
2023/01/31 07:33:37;;;;;;;;;;;;;;;;;;5014635;28;7296;-68
2023/01/31 07:39:08;;;;;;;;;;;;;;;;;;5014067;28;6911;-68
2023/01/31 07:42:09;;;;;;;;;;;;;;;;;;5014355;28;6961;-68
2023/01/31 07:44:35;;;;;;;;;;;;;;;;;;5014325;28;6973;-68
2023/01/31 07:47:24;;;;;;;;;;;;;;;;;;5014352;28;7167;-68
2023/01/31 07:49:49;;;;;;;;;;;;;;;;;;4995562;28;7150;-69
2023/01/31 07:52:15;;;;;;;;;;;;;;;;;;4999000;28;7041;-68
2023/01/31 07:54:40;;;;;;;;;;;;;;;;;;4998050;28;7131;-68
2023/01/31 07:57:06;;;;;;;;;;;;;;;;;;4998410;28;7124;-69
2023/01/31 07:59:50;;;;;;;;;;;;;;;;;;4998104;28;7269;-69
2023/01/31 08:05:02;;;;;;;;;;;;;;;;;;4998175;28;6798;-68
2023/01/31 08:07:36;;;;;;;;;;;;;;;;;;4997766;28;7851;-69
2023/01/31 08:10:02;;;;;;;;;;;;;;;;;;4997920;28;7361;-68
2023/01/31 08:12:48;;;;;;;;;;;;;;;;;;4997775;28;7073;-68
2023/01/31 08:18:24;;;;;;;;;;;;;;;;;;4995815;28;6678;-68
2023/01/31 08:20:50;;;;;;;;;;;;;;;;;;5015413;28;7163;-68
2023/01/31 08:23:20;;;;;;;;;;;;;;;;;;5017189;28;7020;-68
2023/01/31 08:25:46;;;;;;;;;;;;;;;;;;5017166;28;7706;-69
2023/01/31 08:28:36;;;;;;;;;;;;;;;;;;5017959;28;7560;-68
2023/01/31 08:31:02;;;;;;;;;;;;;;;;;;5016990;28;7038;-69
2023/01/31 08:33:27;;;;;;;;;;;;;;;;;;5016149;28;7793;-69
2023/01/31 08:35:53;;;;;;;;;;;;;;;;;;5017067;28;7433;-69
2023/01/31 08:38:19;;;;;;;;;;;;;;;;;;5016863;28;7907;-69
2023/01/31 08:40:44;;;;;;;;;;;;;;;;;;5017066;28;6892;-69
2023/01/31 08:43:10;;;;;;;;;;;;;;;;;;5016752;28;7095;-69
2023/01/31 08:45:36;;;;;;;;;;;;;;;;;;5016915;28;7125;-69
2023/01/31 08:48:36;;;;;;;;;;;;;;;;;;5016831;28;7196;-69
2023/01/31 08:51:04;;;;;;;;;;;;;;;;;;5016832;28;7164;-68
2023/01/31 08:53:30;;;;;;;;;;;;;;;;;;5016691;28;7127;-68
2023/01/31 08:59:01;;;;;;;;;;;;;;;;;;5016457;28;7024;-69
2023/01/31 09:01:26;;;;;;;;;;;;;;;;;;5015904;28;7110;-69
2023/01/31 09:03:55;;;;;;;;;;;;;;;;;;5016238;28;7925;-68
2023/01/31 09:06:23;;;;;;;;;;;;;;;;;;5016299;28;7867;-68
2023/01/31 09:09:17;;;;;;;;;;;;;;;;;;5016526;28;7013;-68
2023/01/31 09:11:43;;;;;;;;;;;;;;;;;;5016340;28;7170;-69
2023/01/31 09:37:10;;;;;;;;;;;;;;;;;;4996215;28;6927;-67
2023/01/31 09:39:36;;;;;;;;;;;;;;;;;;4976324;28;7222;-67
2023/01/31 09:45:36;;;;;;;;;;;;;;;;;;4976470;28;6694;-67
2023/01/31 09:48:05;;;;;;;;;;;;;;;;;;4976335;28;7169;-67
2023/01/31 09:50:35;;;;;;;;;;;;;;;;;;4977285;28;7151;-67
2023/01/31 09:53:02;;;;;;;;;;;;;;;;;;4976248;28;7042;-67
2023/01/31 09:58:56;;;;;;;;;;;;;;;;;;4976611;28;6915;-67
2023/01/31 10:04:30;;;;;;;;;;;;;;;;;;4976197;28;6977;-68
2023/01/31 10:07:12;;;;;;;;;;;;;;;;;;4976008;28;6981;-67
2023/01/31 10:10:05;;;;;;;;;;;;;;;;;;4995372;28;7215;-67
2023/01/31 10:12:40;;;;;;;;;;;;;;;;;;4994578;28;7910;-67
2023/01/31 10:15:27;;;;;;;;;;;;;;;;;;4995326;28;7109;-67
2023/01/31 10:18:03;;;;;;;;;;;;;;;;;;4995514;28;7444;-67
2023/01/31 10:23:45;;;;;;;;;;;;;;;;;;5181420;23;6842;-71
2023/01/31 10:35:39;;;;;;;;;;;;;;;;;;4994963;28;6930;-72
2023/01/31 10:38:14;;;;;;;;;;;;;;;;;;4995179;28;7235;-71
2023/01/31 10:40:45;;;;;;;;;;;;;;;;;;4978309;28;8934;-72
2023/01/31 10:43:17;;;;;;;;;;;;;;;;;;4995191;28;7017;-72
2023/01/31 10:45:43;;;;;;;;;;;;;;;;;;4989608;28;7356;-72
2023/01/31 10:48:11;;;;;;;;;;;;;;;;;;4975655;28;6957;-72
2023/01/31 10:54:17;;;;;;;;;;;;;;;;;;4992719;28;6916;-72
2023/01/31 10:56:45;;;;;;;;;;;;;;;;;;4994181;28;7406;-72
2023/01/31 10:59:32;;;;;;;;;;;;;;;;;;4982403;28;7163;-72
2023/01/31 11:01:58;;;;;;;;;;;;;;;;;;4975625;28;7468;-72
2023/01/31 11:04:37;;;;;;;;;;;;;;;;;;4979457;28;7215;-72
2023/01/31 11:07:04;;;;;;;;;;;;;;;;;;4994242;28;6861;-72
2023/01/31 11:09:57;;;;;;;;;;;;;;;;;;4983888;28;6967;-72
2023/01/31 11:18:34;;;;;;;;;;;;;;;;;;4916217;29;6971;-72
2023/01/31 11:21:15;;;;;;;;;;;;;;;;;;4916177;29;6963;-72
2023/01/31 11:24:02;;;;;;;;;;;;;;;;;;4916238;29;8246;-72
2023/01/31 11:26:38;;;;;;;;;;;;;;;;;;4919703;29;6992;-73
2023/01/31 11:29:26;;;;;;;;;;;;;;;;;;4919723;29;6983;-71
2023/01/31 11:31:54;;;;;;;;;;;;;;;;;;4919846;29;7172;-72
2023/01/31 11:34:22;;;;;;;;;;;;;;;;;;4919482;29;7159;-72
2023/01/31 11:48:58;;;;;;;;;;;;;;;;;;4919432;29;7085;-72
2023/01/31 11:51:53;;;;;;;;;;;;;;;;;;4926945;28;8296;-72
2023/01/31 11:54:24;;;;;;;;;;;;;;;;;;4977281;28;7199;-72
2023/01/31 11:56:50;;;;;;;;;;;;;;;;;;4978419;28;7014;-72
2023/01/31 11:59:52;;;;;;;;;;;;;;;;;;4978365;28;7116;-71
2023/01/31 12:08:46;;;;;;;;;;;;;;;;;;4978826;28;6920;-73
2023/01/31 12:11:17;;;;;;;;;;;;;;;;;;4978453;28;7223;-73
2023/01/31 12:20:17;;;;;;;;;;;;;;;;;;4977992;28;6692;-72
2023/01/31 12:25:45;;;;;;;;;;;;;;;;;;4977954;28;6978;-72
2023/01/31 12:28:10;;;;;;;;;;;;;;;;;;4988217;28;7361;-72
2023/01/31 12:31:01;;;;;;;;;;;;;;;;;;4997593;28;7164;-72
2023/01/31 12:33:37;;;;;;;;;;;;;;;;;;4997505;28;7420;-72
2023/01/31 12:36:14;;;;;;;;;;;;;;;;;;4996798;28;7362;-72
2023/01/31 12:38:54;;;;;;;;;;;;;;;;;;4997341;28;7349;-72
2023/01/31 12:41:28;;;;;;;;;;;;;;;;;;4997373;28;7099;-72
2023/01/31 12:46:56;;;;;;;;;;;;;;;;;;4997328;28;6675;-72
2023/01/31 12:49:48;;;;;;;;;;;;;;;;;;4997304;28;7037;-72
2023/01/31 12:52:25;;;;;;;;;;;;;;;;;;4997127;28;7222;-72
2023/01/31 12:58:12;;;;;;;;;;;;;;;;;;4996821;28;6935;-72
2023/01/31 13:00:38;;;;;;;;;;;;;;;;;;4997095;28;7121;-72
2023/01/31 13:06:14;;;;;;;;;;;;;;;;;;4996787;28;6687;-72
2023/01/31 13:08:45;;;;;;;;;;;;;;;;;;4996869;28;7437;-72
2023/01/31 13:14:19;;;;;;;;;;;;;;;;;;4985562;28;6758;-71
2023/01/31 13:16:47;;;;;;;;;;;;;;;;;;4996679;28;7183;-71
2023/01/31 13:34:58;;;;;;;;;;;;;;;;;;4996381;28;6915;-71
2023/01/31 13:37:26;;;;;;;;;;;;;;;;;;4996014;28;7253;-72
2023/01/31 13:40:25;;;;;;;;;;;;;;;;;;4996741;28;7087;-72
2023/01/31 13:42:52;;;;;;;;;;;;;;;;;;4996379;28;6973;-72
2023/01/31 13:48:28;;;;;;;;;;;;;;;;;;4995206;28;6803;-68
2023/01/31 13:51:03;;;;;;;;;;;;;;;;;;4996650;28;6934;-71
2023/01/31 13:53:35;;;;;;;;;;;;;;;;;;4996313;28;7132;-68
2023/01/31 13:56:03;;;;;;;;;;;;;;;;;;4996121;28;7477;-68
2023/01/31 14:02:04;;;;;;;;;;;;;;;;;;4995981;28;6966;-68
2023/01/31 14:04:34;;;;;;;;;;;;;;;;;;5041631;23;7494;-68
2023/01/31 14:07:04;;;;;;;;;;;;;;;;;;4994591;28;8600;-68
2023/01/31 14:09:31;;;;;;;;;;;;;;;;;;4994184;28;8269;-67
2023/01/31 14:12:19;;;;;;;;;;;;;;;;;;4994857;28;7098;-68
2023/01/31 14:14:44;;;;;;;;;;;;;;;;;;4993552;28;7338;-68
2023/01/31 14:17:12;;;;;;;;;;;;;;;;;;4995265;28;7006;-67
2023/01/31 14:19:47;;;;;;;;;;;;;;;;;;4995909;28;6937;-68
2023/01/31 14:22:41;;;;;;;;;;;;;;;;;;4995602;28;6989;-68
2023/01/31 14:25:09;;;;;;;;;;;;;;;;;;4995619;28;7192;-67
2023/01/31 14:27:34;;;;;;;;;;;;;;;;;;4995767;28;7247;-68
2023/01/31 14:30:06;;;;;;;;;;;;;;;;;;4995557;28;7279;-68
2023/01/31 14:35:36;;;;;;;;;;;;;;;;;;4995432;28;6980;-68
2023/01/31 14:41:18;;;;;;;;;;;;;;;;;;4994923;28;7019;-68
2023/01/31 14:43:46;;;;;;;;;;;;;;;;;;4995263;28;7014;-67
2023/01/31 14:46:31;;;;;;;;;;;;;;;;;;4995309;28;7044;-68
2023/01/31 14:49:15;;;;;;;;;;;;;;;;;;4995048;28;6951;-68
2023/01/31 14:51:40;;;;;;;;;;;;;;;;;;4995237;28;7213;-68
2023/01/31 15:03:39;;;;;;;;;;;;;;;;;;4998543;28;6708;-67
2023/01/31 15:06:05;;;;;;;;;;;;;;;;;;4979268;28;6994;-68
2023/01/31 15:08:34;;;;;;;;;;;;;;;;;;4979667;28;7082;-68
2023/01/31 15:11:04;;;;;;;;;;;;;;;;;;4979798;28;6979;-68
2023/01/31 15:13:49;;;;;;;;;;;;;;;;;;4973822;28;7381;-68
2023/01/31 15:16:18;;;;;;;;;;;;;;;;;;4979371;28;6979;-68
2023/01/31 15:21:55;;;;;;;;;;;;;;;;;;4975252;28;6710;-68
2023/01/31 15:24:28;;;;;;;;;;;;;;;;;;4979332;28;7246;-68
2023/01/31 15:29:57;;;;;;;;;;;;;;;;;;4978980;28;6985;-68
2023/01/31 15:32:32;;;;;;;;;;;;;;;;;;4979176;28;7123;-68
2023/01/31 15:35:06;;;;;;;;;;;;;;;;;;4979175;28;7156;-68
2023/01/31 15:37:34;;;;;;;;;;;;;;;;;;4979618;28;7324;-68
2023/01/31 15:40:04;;;;;;;;;;;;;;;;;;4978718;28;7059;-68
2023/01/31 15:42:32;;;;;;;;;;;;;;;;;;4978868;28;7399;-68
2023/01/31 15:45:16;;;;;;;;;;;;;;;;;;4978893;28;7417;-68
2023/01/31 15:47:42;;;;;;;;;;;;;;;;;;4978831;28;7381;-68
2023/01/31 15:53:20;;;;;;;;;;;;;;;;;;4978591;28;6675;-68
2023/01/31 15:55:49;;;;;;;;;;;;;;;;;;4978737;28;7056;-68
2023/01/31 15:58:26;;;;;;;;;;;;;;;;;;4978681;28;7702;-68
2023/01/31 16:00:57;;;;;;;;;;;;;;;;;;4978671;28;8358;-68
2023/01/31 16:06:36;;;;;;;;;;;;;;;;;;4997679;28;6918;-68
2023/01/31 16:09:03;;;;;;;;;;;;;;;;;;4998417;28;7269;-68
2023/01/31 16:11:31;;;;;;;;;;;;;;;;;;4996959;28;7151;-68
2023/01/31 16:13:59;;;;;;;;;;;;;;;;;;4998183;28;7085;-68
2023/01/31 16:16:33;;;;;;;;;;;;;;;;;;4997868;28;7155;-68
2023/01/31 16:19:05;;;;;;;;;;;;;;;;;;4978305;28;7019;-68
2023/01/31 16:21:34;;;;;;;;;;;;;;;;;;4997151;28;7144;-68
2023/01/31 16:27:17;;;;;;;;;;;;;;;;;;4998103;28;6875;-67
2023/01/31 16:29:45;;;;;;;;;;;;;;;;;;4997572;28;7324;-68
2023/01/31 16:35:37;;;;;;;;;;;;;;;;;;4997167;28;6938;-68
2023/01/31 16:38:06;;;;;;;;;;;;;;;;;;4997971;28;7104;-68
2023/01/31 16:40:46;;;;;;;;;;;;;;;;;;4996949;28;7056;-69
2023/01/31 16:43:12;;;;;;;;;;;;;;;;;;4997587;28;6978;-68
2023/01/31 16:48:40;;;;;;;;;;;;;;;;;;4997009;28;7054;-69
2023/01/31 16:54:21;;;;;;;;;;;;;;;;;;4918317;29;6984;-69
2023/01/31 16:56:56;;;;;;;;;;;;;;;;;;4917959;29;7222;-68
2023/01/31 17:11:35;;;;;;;;;;;;;;;;;;4917896;29;6689;-68
2023/01/31 17:14:22;;;;;;;;;;;;;;;;;;4917771;29;7083;-70
2023/01/31 17:16:51;;;;;;;;;;;;;;;;;;4917781;29;7222;-68
2023/01/31 17:25:32;;;;;;;;;;;;;;;;;;4917312;29;6683;-68
2023/01/31 17:27:57;;;;;;;;;;;;;;;;;;4917495;29;7180;-68
2023/01/31 17:30:52;;;;;;;;;;;;;;;;;;4937120;28;7233;-68
2023/01/31 17:33:18;;;;;;;;;;;;;;;;;;4996455;28;8815;-68
2023/01/31 17:35:50;;;;;;;;;;;;;;;;;;4996126;28;7483;-68
2023/01/31 17:38:22;;;;;;;;;;;;;;;;;;4996225;28;7017;-68
2023/01/31 17:40:48;;;;;;;;;;;;;;;;;;4996213;28;7239;-68
2023/01/31 17:43:21;;;;;;;;;;;;;;;;;;4996206;28;7119;-68
2023/01/31 17:45:56;;;;;;;;;;;;;;;;;;4996136;28;7017;-68
2023/01/31 17:48:22;;;;;;;;;;;;;;;;;;4996075;28;7388;-68
2023/01/31 17:50:48;;;;;;;;;;;;;;;;;;4978654;28;8401;-68
2023/01/31 17:53:17;;;;;;;;;;;;;;;;;;4996153;28;7164;-68
2023/01/31 17:55:43;;;;;;;;;;;;;;;;;;4978351;28;8495;-68
2023/01/31 17:58:17;;;;;;;;;;;;;;;;;;4995686;28;6979;-68
2023/01/31 18:00:45;;;;;;;;;;;;;;;;;;4995923;28;6970;-68
2023/01/31 18:03:15;;;;;;;;;;;;;;;;;;4995735;28;7170;-68
2023/01/31 18:05:41;;;;;;;;;;;;;;;;;;4996075;28;7440;-68
2023/01/31 18:08:06;;;;;;;;;;;;;;;;;;4995622;28;7009;-68
2023/01/31 18:10:32;;;;;;;;;;;;;;;;;;4995718;28;7408;-68
2023/01/31 18:16:31;;;;;;;;;;;;;;;;;;4995546;28;6703;-68
2023/01/31 18:18:57;;;;;;;;;;;;;;;;;;4995552;28;7220;-68
2023/01/31 18:21:22;;;;;;;;;;;;;;;;;;4995591;28;7210;-68
2023/01/31 18:23:49;;;;;;;;;;;;;;;;;;4995529;28;7150;-68
2023/01/31 18:26:16;;;;;;;;;;;;;;;;;;4995621;28;7033;-68
2023/01/31 18:28:43;;;;;;;;;;;;;;;;;;4995499;28;7059;-68
2023/01/31 18:31:12;;;;;;;;;;;;;;;;;;4995165;28;7066;-68
2023/01/31 18:33:39;;;;;;;;;;;;;;;;;;4994697;28;6992;-68
2023/01/31 18:36:05;;;;;;;;;;;;;;;;;;4995354;28;7330;-68
2023/01/31 18:38:31;;;;;;;;;;;;;;;;;;4996133;28;7391;-68
2023/01/31 18:40:59;;;;;;;;;;;;;;;;;;4995033;28;6965;-68
2023/01/31 18:43:24;;;;;;;;;;;;;;;;;;4995028;28;7102;-68
2023/01/31 18:45:50;;;;;;;;;;;;;;;;;;4995169;28;7099;-68
2023/01/31 18:51:07;;;;;;;;;;;;;;;;;;4995204;28;7016;-68
2023/01/31 18:53:36;;;;;;;;;;;;;;;;;;4994851;28;7134;-68
2023/01/31 18:56:04;;;;;;;;;;;;;;;;;;4995230;28;7137;-68
2023/01/31 18:58:53;;;;;;;;;;;;;;;;;;4995357;28;7497;-68
2023/01/31 19:01:20;;;;;;;;;;;;;;;;;;4993863;28;8677;-68
2023/01/31 19:03:48;;;;;;;;;;;;;;;;;;4995064;28;7010;-68
2023/01/31 19:09:07;;;;;;;;;;;;;;;;;;4976045;28;7001;-68
2023/01/31 19:11:33;;;;;;;;;;;;;;;;;;4975815;28;7450;-68
2023/01/31 19:14:03;;;;;;;;;;;;;;;;;;4995050;28;7162;-68
2023/01/31 19:16:29;;;;;;;;;;;;;;;;;;4994967;28;7401;-68
2023/01/31 19:19:00;;;;;;;;;;;;;;;;;;4994875;28;7178;-68
2023/01/31 19:21:28;;;;;;;;;;;;;;;;;;4995019;28;7305;-68
2023/01/31 19:23:55;;;;;;;;;;;;;;;;;;4994873;28;7236;-68
2023/01/31 19:26:21;;;;;;;;;;;;;;;;;;4993891;28;7881;-68
2023/01/31 19:28:46;;;;;;;;;;;;;;;;;;4994868;28;7418;-68
2023/01/31 19:31:49;;;;;;;;;;;;;;;;;;4995001;28;7448;-68
2023/01/31 19:34:14;;;;;;;;;;;;;;;;;;4994915;28;7052;-68
2023/01/31 19:36:43;;;;;;;;;;;;;;;;;;4994447;28;7062;-68
2023/01/31 19:39:30;;;;;;;;;;;;;;;;;;4994751;28;7434;-68
2023/01/31 19:41:56;;;;;;;;;;;;;;;;;;4994801;28;7150;-68
2023/01/31 19:44:21;;;;;;;;;;;;;;;;;;4994944;28;7200;-68
2023/01/31 19:47:02;;;;;;;;;;;;;;;;;;4998431;28;7291;-68
2023/01/31 19:49:27;;;;;;;;;;;;;;;;;;4998072;28;7174;-68
2023/01/31 19:51:53;;;;;;;;;;;;;;;;;;4998167;28;7171;-68
2023/01/31 19:54:34;;;;;;;;;;;;;;;;;;4998350;28;7196;-68
2023/01/31 19:57:00;;;;;;;;;;;;;;;;;;4998272;28;7047;-68
2023/01/31 19:59:25;;;;;;;;;;;;;;;;;;4998247;28;7116;-68
2023/01/31 20:02:10;;;;;;;;;;;;;;;;;;4998107;28;7390;-68
2023/01/31 20:04:52;;;;;;;;;;;;;;;;;;4978521;28;7304;-68
2023/01/31 20:07:17;;;;;;;;;;;;;;;;;;4978694;28;6950;-68
2023/01/31 20:09:43;;;;;;;;;;;;;;;;;;4978262;28;7016;-68
2023/01/31 20:15:10;;;;;;;;;;;;;;;;;;4997771;28;6993;-68
2023/01/31 20:17:35;;;;;;;;;;;;;;;;;;4998734;28;7191;-68
2023/01/31 20:20:10;;;;;;;;;;;;;;;;;;4997841;28;7376;-68
2023/01/31 20:22:36;;;;;;;;;;;;;;;;;;4997355;28;7206;-68
2023/01/31 20:25:03;;;;;;;;;;;;;;;;;;4997646;28;7407;-68
2023/01/31 20:27:37;;;;;;;;;;;;;;;;;;4997713;28;7172;-68
2023/01/31 20:30:03;;;;;;;;;;;;;;;;;;4997421;28;6937;-68
2023/01/31 20:32:28;;;;;;;;;;;;;;;;;;4998146;28;6980;-68
2023/01/31 20:37:56;;;;;;;;;;;;;;;;;;4997287;28;6934;-68
2023/01/31 20:40:34;;;;;;;;;;;;;;;;;;4997355;28;7138;-68
2023/01/31 20:43:00;;;;;;;;;;;;;;;;;;4997261;28;7287;-68
2023/01/31 20:51:46;;;;;;;;;;;;;;;;;;4997153;28;6879;-68
2023/01/31 20:54:12;;;;;;;;;;;;;;;;;;4997108;28;7070;-69
2023/01/31 21:05:46;;;;;;;;;;;;;;;;;;4996457;28;6678;-69
2023/01/31 21:08:12;;;;;;;;;;;;;;;;;;4996835;28;7602;-68
2023/01/31 21:10:37;;;;;;;;;;;;;;;;;;4996816;28;7033;-68
2023/01/31 21:19:08;;;;;;;;;;;;;;;;;;4996251;28;6973;-68
2023/01/31 21:24:46;;;;;;;;;;;;;;;;;;4996408;28;7052;-68
2023/01/31 21:27:11;;;;;;;;;;;;;;;;;;4996722;28;7169;-68
2023/01/31 21:29:50;;;;;;;;;;;;;;;;;;4996425;28;7140;-68
2023/01/31 21:32:15;;;;;;;;;;;;;;;;;;4996433;28;7195;-68
2023/01/31 21:34:52;;;;;;;;;;;;;;;;;;4997206;28;7126;-68
2023/01/31 21:37:18;;;;;;;;;;;;;;;;;;4996394;28;7421;-69
2023/01/31 21:39:43;;;;;;;;;;;;;;;;;;4996172;28;7405;-68
2023/01/31 21:42:15;;;;;;;;;;;;;;;;;;4996205;28;7162;-68
2023/01/31 21:44:52;;;;;;;;;;;;;;;;;;4979831;28;7190;-68
2023/01/31 21:47:17;;;;;;;;;;;;;;;;;;4996846;28;7384;-68
2023/01/31 21:56:05;;;;;;;;;;;;;;;;;;4995938;28;6941;-68
2023/01/31 21:58:32;;;;;;;;;;;;;;;;;;4995649;28;7133;-68
2023/01/31 22:04:01;;;;;;;;;;;;;;;;;;4995724;28;6951;-68
2023/01/31 22:06:28;;;;;;;;;;;;;;;;;;4995538;28;7047;-68
2023/01/31 22:08:55;;;;;;;;;;;;;;;;;;4994958;28;7264;-68
2023/01/31 22:11:21;;;;;;;;;;;;;;;;;;4995903;28;7211;-68
2023/01/31 22:14:14;;;;;;;;;;;;;;;;;;4995465;28;8205;-68
2023/01/31 22:16:40;;;;;;;;;;;;;;;;;;4995496;28;6860;-68
2023/01/31 22:19:18;;;;;;;;;;;;;;;;;;4995632;28;7087;-68
2023/01/31 22:21:44;;;;;;;;;;;;;;;;;;4991710;28;7088;-68
2023/01/31 22:27:12;;;;;;;;;;;;;;;;;;4992390;28;6758;-68
2023/01/31 22:29:50;;;;;;;;;;;;;;;;;;4984672;28;7081;-68
2023/01/31 22:32:16;;;;;;;;;;;;;;;;;;4995363;28;7130;-68
2023/01/31 22:34:49;;;;;;;;;;;;;;;;;;4995050;28;7850;-68
2023/01/31 22:37:15;;;;;;;;;;;;;;;;;;4995247;28;7130;-68
2023/01/31 22:39:40;;;;;;;;;;;;;;;;;;4995196;28;7316;-68
2023/01/31 22:42:06;;;;;;;;;;;;;;;;;;4995280;28;7118;-68
2023/01/31 22:44:51;;;;;;;;;;;;;;;;;;4995379;28;6910;-68
2023/01/31 22:47:17;;;;;;;;;;;;;;;;;;4995601;28;7120;-68
2023/01/31 22:49:43;;;;;;;;;;;;;;;;;;4995369;28;7100;-68
2023/01/31 22:52:08;;;;;;;;;;;;;;;;;;4995320;28;6914;-68
2023/01/31 22:54:50;;;;;;;;;;;;;;;;;;4995360;28;7037;-68
2023/01/31 22:57:15;;;;;;;;;;;;;;;;;;4995206;28;7175;-68
2023/01/31 22:59:41;;;;;;;;;;;;;;;;;;4995065;28;7141;-68
2023/01/31 23:05:10;;;;;;;;;;;;;;;;;;4994813;28;6944;-68
2023/01/31 23:10:39;;;;;;;;;;;;;;;;;;4994881;28;6933;-68
2023/01/31 23:13:09;;;;;;;;;;;;;;;;;;4994995;28;7147;-68
2023/01/31 23:15:37;;;;;;;;;;;;;;;;;;4995099;28;7197;-68
2023/01/31 23:18:04;;;;;;;;;;;;;;;;;;4995079;28;7250;-68
2023/01/31 23:20:31;;;;;;;;;;;;;;;;;;4996790;28;7133;-68
2023/01/31 23:23:25;;;;;;;;;;;;;;;;;;4998558;28;6966;-68
2023/01/31 23:25:50;;;;;;;;;;;;;;;;;;4998553;28;6990;-67
2023/01/31 23:28:16;;;;;;;;;;;;;;;;;;4998815;28;7178;-68